Time;durP1;ratioP1;P1;durP2;ratioP2;P2;SDS_P1;SDS_P2;PMS_P1;PMS_P2;Temp;Humidity;BMP_temperature;BMP_pressure;BME280_temperature;BME280_humidity;BME280_pressure;Samples;Min_cycle;Max_cycle;Signal;HPM_P1;HPM_P2
2023/10/05 00:02:21;;;;;;;5.07;3.30;;;8.80;99.80;;;;;;5085880;28;20193;-91
2023/10/05 00:04:50;;;;;;;5.50;3.30;;;8.80;99.80;;;;;;5072734;28;20201;-91
2023/10/05 00:07:20;;;;;;;6.72;3.17;;;8.80;99.90;;;;;;5087459;28;20207;-91
2023/10/05 00:09:47;;;;;;;5.28;3.00;;;8.70;99.90;;;;;;5081883;28;20204;-90
2023/10/05 00:12:20;;;;;;;7.40;3.45;;;8.70;99.90;;;;;;5073293;28;20275;-91
2023/10/05 00:14:54;;;;;;;4.55;3.33;;;8.70;99.90;;;;;;5082225;28;20300;-88
2023/10/05 00:17:22;;;;;;;4.05;3.03;;;8.60;99.90;;;;;;5074877;28;20197;-91
2023/10/05 00:19:49;;;;;;;4.80;2.83;;;8.70;99.90;;;;;;5072246;28;20201;-90
2023/10/05 00:22:16;;;;;;;5.55;3.08;;;8.70;99.90;;;;;;5092057;28;20253;-91
2023/10/05 00:24:45;;;;;;;4.63;3.10;;;8.70;99.80;;;;;;5081729;28;20205;-91
2023/10/05 00:27:14;;;;;;;5.13;2.78;;;8.70;99.70;;;;;;5085292;28;20204;-91
2023/10/05 00:29:53;;;;;;;5.75;3.30;;;8.70;99.50;;;;;;5075306;28;21009;-92
2023/10/05 00:32:34;;;;;;;5.30;2.88;;;8.70;99.50;;;;;;5079397;28;20193;-91
2023/10/05 00:35:11;;;;;;;4.55;2.88;;;8.70;99.30;;;;;;5076923;28;20201;-91
2023/10/05 00:37:38;;;;;;;5.97;3.08;;;8.70;99.40;;;;;;5081411;28;20196;-91
2023/10/05 00:40:10;;;;;;;5.45;3.00;;;8.70;99.60;;;;;;5077119;28;20292;-91
2023/10/05 00:42:37;;;;;;;5.20;3.08;;;8.60;99.60;;;;;;5081975;28;20199;-90
2023/10/05 00:45:11;;;;;;;5.93;3.22;;;8.60;99.70;;;;;;5076711;28;20245;-90
2023/10/05 00:47:39;;;;;;;5.10;3.13;;;8.60;99.60;;;;;;5075603;28;20193;-92
2023/10/05 00:50:07;;;;;;;5.25;3.10;;;8.60;99.80;;;;;;5077554;28;20289;-91
2023/10/05 00:52:34;;;;;;;7.20;2.95;;;8.70;99.60;;;;;;5080299;28;20647;-92
2023/10/05 00:55:06;;;;;;;4.45;3.00;;;8.80;99.00;;;;;;5076350;28;20228;-91
2023/10/05 00:57:34;;;;;;;4.55;2.92;;;8.70;98.80;;;;;;5075738;28;20198;-91
2023/10/05 01:00:26;;;;;;;5.53;3.22;;;8.80;99.30;;;;;;5083748;28;20581;-91
2023/10/05 01:03:16;;;;;;;5.20;3.00;;;8.70;98.90;;;;;;5081046;28;20200;-91
2023/10/05 01:05:51;;;;;;;4.15;3.10;;;8.60;99.00;;;;;;5072964;28;20201;-92
2023/10/05 01:08:23;;;;;;;5.78;2.80;;;8.60;99.00;;;;;;5079519;28;20700;-91
2023/10/05 01:10:52;;;;;;;3.88;3.00;;;8.50;99.10;;;;;;5077325;28;20205;-91
2023/10/05 01:13:31;;;;;;;5.97;2.78;;;8.60;99.10;;;;;;5079573;28;20193;-91
2023/10/05 01:15:59;;;;;;;9.70;2.88;;;8.50;98.80;;;;;;5083352;28;20245;-91
2023/10/05 01:18:29;;;;;;;8.27;3.15;;;8.40;99.10;;;;;;5088248;28;20597;-91
2023/10/05 01:21:00;;;;;;;4.20;3.10;;;8.40;99.10;;;;;;5084083;28;20549;-91
2023/10/05 01:23:38;;;;;;;3.53;2.70;;;8.40;99.20;;;;;;5087678;28;20208;-89
2023/10/05 01:26:10;;;;;;;3.63;2.53;;;8.40;99.20;;;;;;5080699;28;20211;-91
2023/10/05 01:28:37;;;;;;;5.63;3.05;;;8.30;98.90;;;;;;5080419;28;20189;-92
2023/10/05 01:31:07;;;;;;;4.20;2.53;;;8.20;99.10;;;;;;5084867;28;20200;-89
2023/10/05 01:33:35;;;;;;;3.72;2.70;;;8.10;99.70;;;;;;5086440;28;20204;-91
2023/10/05 01:36:03;;;;;;;5.82;2.90;;;8.10;99.90;;;;;;5083018;28;20217;-91
2023/10/05 01:38:37;;;;;;;5.38;2.88;;;8.10;99.90;;;;;;5085809;28;20284;-91
2023/10/05 01:41:05;;;;;;;4.55;2.50;;;8.10;99.90;;;;;;5089273;28;20246;-91
2023/10/05 01:43:34;;;;;;;4.20;2.45;;;8.10;99.90;;;;;;5079905;28;20207;-91
2023/10/05 01:46:01;;;;;;;4.50;2.63;;;8.10;99.90;;;;;;5084761;28;20207;-92
2023/10/05 01:48:30;;;;;;;4.35;2.83;;;8.10;99.60;;;;;;5084067;28;20193;-91
2023/10/05 01:51:00;;;;;;;4.43;2.53;;;8.10;99.50;;;;;;5090339;28;20220;-91
2023/10/05 01:53:27;;;;;;;3.90;2.72;;;8.00;99.60;;;;;;5084999;28;20208;-91
2023/10/05 01:55:55;;;;;;;3.63;2.55;;;8.00;99.80;;;;;;5080094;28;20228;-90
2023/10/05 01:58:34;;;;;;;4.80;2.85;;;7.90;99.90;;;;;;5086610;28;20208;-91
2023/10/05 02:01:03;;;;;;;6.10;3.22;;;7.90;99.80;;;;;;5084137;28;20280;-92
2023/10/05 02:03:31;;;;;;;4.60;2.75;;;7.90;99.90;;;;;;5082521;28;20258;-91
2023/10/05 02:06:04;;;;;;;3.45;2.70;;;7.90;99.90;;;;;;5081786;28;20193;-91
2023/10/05 02:08:33;;;;;;;7.00;2.80;;;8.00;99.90;;;;;;5084340;28;20712;-91
2023/10/05 02:11:04;;;;;;;4.40;2.55;;;8.10;99.70;;;;;;5088041;28;20646;-90
2023/10/05 02:13:31;;;;;;;4.78;2.55;;;8.00;99.30;;;;;;5077518;28;20190;-92
2023/10/05 02:15:59;;;;;;;5.03;2.45;;;7.90;99.30;;;;;;5082231;28;20221;-91
2023/10/05 02:18:26;;;;;;;3.95;2.45;;;7.70;99.50;;;;;;5079329;28;20216;-91
2023/10/05 02:21:01;;;;;;;4.07;2.63;;;7.60;99.70;;;;;;5074586;28;20208;-91
2023/10/05 02:23:34;;;;;;;5.20;2.85;;;7.60;99.90;;;;;;5086393;28;20828;-91
2023/10/05 02:26:08;;;;;;;4.25;2.30;;;7.60;99.90;;;;;;5081111;28;20197;-91
2023/10/05 02:28:39;;;;;;;4.97;2.83;;;7.60;99.90;;;;;;5078148;28;20649;-90
2023/10/05 02:31:10;;;;;;;4.25;2.72;;;7.60;99.90;;;;;;5074792;28;20201;-90
2023/10/05 02:33:39;;;;;;;4.85;2.80;;;7.60;99.90;;;;;;5084822;28;20263;-91
2023/10/05 02:36:17;;;;;;;4.30;2.47;;;7.60;99.90;;;;;;5076905;28;20217;-91
2023/10/05 02:38:53;;;;;;;3.92;2.55;;;7.60;99.90;;;;;;5074027;28;20313;-91
2023/10/05 02:41:37;;;;;;;3.45;2.65;;;7.70;99.90;;;;;;5077219;28;20228;-90
2023/10/05 02:44:08;;;;;;;5.53;2.58;;;7.70;99.90;;;;;;5081927;28;20793;-91
2023/10/05 02:46:36;;;;;;;4.35;2.67;;;7.60;99.90;;;;;;5079155;28;20200;-91
2023/10/05 02:49:03;;;;;;;4.10;2.63;;;7.60;99.90;;;;;;5078738;28;20665;-90
2023/10/05 02:51:30;;;;;;;6.47;2.85;;;7.50;99.90;;;;;;5077292;28;20583;-90
2023/10/05 02:54:04;;;;;;;4.05;2.17;;;7.60;99.90;;;;;;5075105;28;20216;-92
2023/10/05 02:56:33;;;;;;;4.60;2.65;;;7.60;99.80;;;;;;5077217;28;20200;-91
2023/10/05 02:59:02;;;;;;;4.07;2.67;;;7.60;99.60;;;;;;5088228;28;20246;-91
2023/10/05 03:01:32;;;;;;;3.90;2.50;;;7.50;99.90;;;;;;5077440;28;20196;-90
2023/10/05 03:04:03;;;;;;;3.40;2.60;;;7.50;99.90;;;;;;5081278;28;20228;-91
2023/10/05 03:06:31;;;;;;;4.35;2.38;;;7.50;99.90;;;;;;5079149;28;20204;-90
2023/10/05 03:09:07;;;;;;;4.90;2.67;;;7.50;99.90;;;;;;5080493;28;20232;-91
2023/10/05 03:11:39;;;;;;;3.95;2.65;;;7.50;99.90;;;;;;5080370;28;20192;-91
2023/10/05 03:14:06;;;;;;;3.63;2.42;;;7.60;99.90;;;;;;5078600;28;20208;-92
2023/10/05 03:16:43;;;;;;;4.65;2.65;;;7.70;99.90;;;;;;5085048;28;20224;-91
2023/10/05 03:19:12;;;;;;;4.10;2.60;;;7.80;99.90;;;;;;5082507;28;20249;-91
2023/10/05 03:21:40;;;;;;;3.90;2.70;;;7.80;99.70;;;;;;5085278;28;20234;-91
2023/10/05 03:24:13;;;;;;;4.43;2.60;;;7.70;99.90;;;;;;5080092;28;20205;-91
2023/10/05 03:26:42;;;;;;;4.68;2.50;;;7.70;99.90;;;;;;5080235;28;20202;-91
2023/10/05 03:29:11;;;;;;;3.55;2.70;;;7.80;99.90;;;;;;5080646;28;20689;-90
2023/10/05 03:31:43;;;;;;;3.60;2.28;;;7.90;99.90;;;;;;5084581;28;20226;-91
2023/10/05 03:34:10;;;;;;;3.50;2.50;;;8.00;99.90;;;;;;5081978;28;20224;-91
2023/10/05 03:36:37;;;;;;;4.85;2.72;;;8.00;99.90;;;;;;5080523;28;20224;-91
2023/10/05 03:39:06;;;;;;;3.40;2.50;;;8.10;99.80;;;;;;5088266;28;20281;-91
2023/10/05 03:41:38;;;;;;;3.83;2.17;;;8.00;99.60;;;;;;5080614;28;20589;-91
2023/10/05 03:44:07;;;;;;;3.67;2.60;;;8.10;99.80;;;;;;5081780;28;20196;-91
2023/10/05 03:46:35;;;;;;;4.45;2.67;;;8.00;99.90;;;;;;5082201;28;20548;-91
2023/10/05 03:49:02;;;;;;;3.85;2.33;;;8.00;99.90;;;;;;5084289;28;20200;-91
2023/10/05 03:51:29;;;;;;;4.55;2.50;;;8.10;99.90;;;;;;5086285;28;20220;-91
2023/10/05 03:53:56;;;;;;;4.03;2.33;;;8.10;99.80;;;;;;5079014;28;20205;-91
2023/10/05 03:56:27;;;;;;;3.97;2.75;;;8.00;99.90;;;;;;5085204;28;20220;-91
2023/10/05 03:58:54;;;;;;;4.80;2.60;;;8.00;99.90;;;;;;5087486;28;20188;-91
2023/10/05 04:01:23;;;;;;;5.65;3.00;;;7.90;99.90;;;;;;5079477;28;20204;-91
2023/10/05 04:03:50;;;;;;;6.00;2.70;;;7.80;99.90;;;;;;5081940;28;20279;-91
2023/10/05 04:06:17;;;;;;;4.07;2.60;;;7.70;99.90;;;;;;5084285;28;20872;-90
2023/10/05 04:08:49;;;;;;;4.72;2.42;;;7.70;99.90;;;;;;5079014;28;20197;-91
2023/10/05 04:11:18;;;;;;;5.25;2.80;;;7.70;99.90;;;;;;5078580;28;20221;-91
2023/10/05 04:13:46;;;;;;;8.05;2.92;;;7.80;99.90;;;;;;5075300;28;20250;-91
2023/10/05 04:16:21;;;;;;;3.80;2.72;;;7.80;99.90;;;;;;5083362;28;20270;-91
2023/10/05 04:18:51;;;;;;;5.78;2.45;;;7.80;99.90;;;;;;5077326;28;20193;-91
2023/10/05 04:21:19;;;;;;;4.68;2.95;;;7.80;99.90;;;;;;5087787;28;20208;-90
2023/10/05 04:23:49;;;;;;;4.82;2.80;;;7.80;99.90;;;;;;5079757;28;20189;-91
2023/10/05 04:26:18;;;;;;;5.38;3.10;;;7.70;99.90;;;;;;5074660;28;20197;-90
2023/10/05 04:28:52;;;;;;;5.50;3.10;;;7.60;99.90;;;;;;5079017;28;20212;-91
2023/10/05 04:31:22;;;;;;;3.33;2.63;;;7.60;99.90;;;;;;5082795;28;20636;-90
2023/10/05 04:33:51;;;;;;;4.03;2.67;;;7.60;99.90;;;;;;5073419;28;20204;-91
2023/10/05 04:36:22;;;;;;;4.75;3.08;;;7.60;99.90;;;;;;5083348;28;20227;-91
2023/10/05 04:38:49;;;;;;;3.58;2.88;;;7.70;99.90;;;;;;5076079;28;20220;-93
2023/10/05 04:41:19;;;;;;;4.10;2.75;;;7.60;99.90;;;;;;5078283;28;20195;-91
2023/10/05 04:43:48;;;;;;;4.30;2.65;;;7.60;99.90;;;;;;5083532;28;20207;-89
2023/10/05 04:46:17;;;;;;;4.68;2.60;;;7.60;99.90;;;;;;5071819;28;20205;-90
2023/10/05 04:48:55;;;;;;;5.32;2.58;;;7.50;99.90;;;;;;5076180;28;20200;-89
2023/10/05 04:51:24;;;;;;;6.53;2.85;;;7.50;99.90;;;;;;5083873;28;20223;-91
2023/10/05 04:53:54;;;;;;;4.05;2.70;;;7.50;99.90;;;;;;5074720;28;20205;-92
2023/10/05 04:56:34;;;;;;;6.63;3.42;;;7.50;99.90;;;;;;5089347;28;20220;-91
2023/10/05 05:02:00;;;;;;;4.82;3.20;;;7.50;99.90;;;;;;5087463;28;20288;-90
2023/10/05 05:04:27;;;;;;;3.95;3.00;;;7.50;99.90;;;;;;5079100;28;20593;-91
2023/10/05 05:06:56;;;;;;;5.05;3.08;;;7.60;99.90;;;;;;5079069;28;20572;-91
2023/10/05 05:09:30;;;;;;;4.07;3.10;;;7.60;99.90;;;;;;5090234;28;20245;-91
2023/10/05 05:12:03;;;;;;;5.90;3.28;;;7.70;99.90;;;;;;5076834;28;20208;-92
2023/10/05 05:14:32;;;;;;;4.88;3.00;;;7.70;99.90;;;;;;5088467;28;20205;-89
2023/10/05 05:17:02;;;;;;;4.00;2.85;;;7.70;99.90;;;;;;5076032;28;20654;-92
2023/10/05 05:19:29;;;;;;;5.75;2.92;;;7.70;99.90;;;;;;5077114;28;20676;-92
2023/10/05 05:21:59;;;;;;;3.83;2.75;;;7.70;99.90;;;;;;5073707;28;20204;-89
2023/10/05 05:24:28;;;;;;;4.78;2.92;;;7.70;99.90;;;;;;5074915;28;20243;-91
2023/10/05 05:26:59;;;;;;;3.83;2.75;;;7.70;99.90;;;;;;5089321;28;20199;-90
2023/10/05 05:29:25;;;;;;;4.68;3.10;;;7.60;99.90;;;;;;5075018;28;20213;-90
2023/10/05 05:31:52;;;;;;;4.35;3.13;;;7.60;99.90;;;;;;5080698;28;20198;-90
2023/10/05 05:34:19;;;;;;;7.68;2.97;;;7.60;99.90;;;;;;5082342;28;20204;-91
2023/10/05 05:36:46;;;;;;;5.32;3.53;;;7.60;99.90;;;;;;5080278;28;20947;-91
2023/10/05 05:39:14;;;;;;;5.18;2.97;;;7.60;99.90;;;;;;5080258;28;20565;-89
2023/10/05 05:41:42;;;;;;;5.07;3.15;;;7.70;99.90;;;;;;5087523;28;20205;-90
2023/10/05 05:44:10;;;;;;;3.28;2.50;;;7.80;99.90;;;;;;5081535;28;20204;-90
2023/10/05 05:46:36;;;;;;;5.22;3.08;;;8.00;99.90;;;;;;5082608;28;20246;-90
2023/10/05 05:49:08;;;;;;;4.35;2.70;;;8.10;99.90;;;;;;5089553;28;20203;-90
2023/10/05 05:51:34;;;;;;;6.07;3.20;;;8.00;99.90;;;;;;5085261;28;20242;-90
2023/10/05 05:54:03;;;;;;;4.85;3.15;;;8.10;99.90;;;;;;5082218;28;20250;-92
2023/10/05 05:56:31;;;;;;;7.30;3.47;;;8.10;99.90;;;;;;5076563;28;20224;-90
2023/10/05 05:59:00;;;;;;;7.40;3.30;;;8.20;99.90;;;;;;5079754;28;20207;-91
2023/10/05 06:01:27;;;;;;;6.00;3.60;;;8.30;99.90;;;;;;5078168;28;20645;-90
2023/10/05 06:03:54;;;;;;;5.03;3.30;;;8.40;99.90;;;;;;5082544;28;20566;-89
2023/10/05 06:06:21;;;;;;;4.88;3.20;;;8.50;99.90;;;;;;5079554;28;20197;-91
2023/10/05 06:08:49;;;;;;;5.53;3.30;;;8.60;99.90;;;;;;5078809;28;20201;-92
2023/10/05 06:11:15;;;;;;;4.90;2.90;;;8.90;99.90;;;;;;5084877;28;20189;-93
2023/10/05 06:13:45;;;;;;;5.00;3.42;;;8.90;99.90;;;;;;5088345;28;20192;-93
2023/10/05 06:16:14;;;;;;;4.45;3.10;;;8.90;99.90;;;;;;5081308;28;20563;-93
2023/10/05 06:18:40;;;;;;;6.40;3.47;;;9.00;99.90;;;;;;5079921;28;20229;-91
2023/10/05 06:21:08;;;;;;;4.57;3.00;;;9.10;99.90;;;;;;5079334;28;20584;-93
2023/10/05 06:23:35;;;;;;;5.70;3.90;;;9.30;99.90;;;;;;5076383;28;20204;-93
2023/10/05 06:26:02;;;;;;;4.53;3.40;;;9.50;99.90;;;;;;5078952;28;20204;-93
2023/10/05 06:28:32;;;;;;;4.53;3.38;;;9.70;99.90;;;;;;5090204;28;20197;-93
2023/10/05 06:31:01;;;;;;;4.95;3.00;;;9.80;99.90;;;;;;5079998;28;20705;-92
2023/10/05 06:33:27;;;;;;;5.32;3.55;;;9.80;99.90;;;;;;5092555;28;20262;-92
2023/10/05 06:35:54;;;;;;;4.82;3.65;;;9.70;99.90;;;;;;5079895;28;20198;-93
2023/10/05 06:38:23;;;;;;;5.03;3.40;;;9.80;99.90;;;;;;5077435;28;20201;-93
2023/10/05 06:40:50;;;;;;;5.05;3.50;;;9.90;99.90;;;;;;5070396;28;20199;-93
2023/10/05 06:43:17;;;;;;;6.38;3.85;;;10.00;99.90;;;;;;5079673;28;20204;-91
2023/10/05 06:45:45;;;;;;;7.03;3.50;;;9.90;99.90;;;;;;5090390;28;20197;-90
2023/10/05 06:48:14;;;;;;;7.22;3.75;;;9.90;99.90;;;;;;5088329;28;20212;-89
2023/10/05 06:50:41;;;;;;;5.63;3.80;;;9.90;99.90;;;;;;5078238;28;20241;-90
2023/10/05 06:53:08;;;;;;;5.43;3.58;;;10.10;99.90;;;;;;5074046;28;20321;-90
2023/10/05 06:55:38;;;;;;;6.38;4.07;;;10.20;99.90;;;;;;5076777;28;20630;-88
2023/10/05 06:58:05;;;;;;;6.30;3.70;;;10.30;99.90;;;;;;5079439;28;20623;-88
2023/10/05 07:00:32;;;;;;;7.95;4.22;;;10.50;99.90;;;;;;5080882;28;20918;-87
2023/10/05 07:03:06;;;;;;;5.47;3.72;;;10.70;99.90;;;;;;5081871;28;20197;-90
2023/10/05 07:05:35;;;;;;;6.85;3.53;;;10.80;99.90;;;;;;5082307;28;20781;-90
2023/10/05 07:08:02;;;;;;;9.13;4.10;;;10.90;99.90;;;;;;5077212;28;20201;-90
2023/10/05 07:10:31;;;;;;;4.78;3.50;;;11.00;99.90;;;;;;5078142;28;20204;-90
2023/10/05 07:12:58;;;;;;;5.03;4.05;;;11.00;99.90;;;;;;5079200;28;20203;-90
2023/10/05 07:15:29;;;;;;;7.80;3.88;;;11.20;99.90;;;;;;5081640;28;20230;-89
2023/10/05 07:17:56;;;;;;;7.85;3.88;;;11.30;99.90;;;;;;5082475;28;20221;-87
2023/10/05 07:20:23;;;;;;;9.77;4.18;;;11.40;99.90;;;;;;5077166;28;20786;-90
2023/10/05 07:22:52;;;;;;;6.43;3.60;;;11.50;99.60;;;;;;5085142;28;20201;-90
2023/10/05 07:25:21;;;;;;;7.30;3.83;;;11.60;99.50;;;;;;5082978;28;20247;-91
2023/10/05 07:27:48;;;;;;;5.97;3.67;;;11.70;98.90;;;;;;5078488;28;20288;-91
2023/10/05 07:30:15;;;;;;;6.65;3.60;;;11.70;98.70;;;;;;5085999;28;20201;-90
2023/10/05 07:32:42;;;;;;;4.57;3.53;;;11.90;98.80;;;;;;5080444;28;20205;-91
2023/10/05 07:35:12;;;;;;;7.97;3.72;;;12.00;98.60;;;;;;5077235;28;20225;-91
2023/10/05 07:37:39;;;;;;;4.95;3.33;;;12.10;98.20;;;;;;5083427;28;20335;-90
2023/10/05 07:42:49;;;;;;;5.40;3.10;;;12.40;97.50;;;;;;5087430;28;20257;-89
2023/10/05 07:45:16;;;;;;;6.30;3.47;;;12.60;97.10;;;;;;5074218;28;20613;-89
2023/10/05 07:47:44;;;;;;;5.18;4.03;;;12.60;96.60;;;;;;5084409;28;20197;-90
2023/10/05 07:50:11;;;;;;;5.90;3.47;;;12.80;96.70;;;;;;5081706;28;20271;-90
2023/10/05 07:52:39;;;;;;;4.47;3.20;;;12.90;97.00;;;;;;5083653;28;20219;-90
2023/10/05 07:55:08;;;;;;;9.45;3.30;;;13.10;96.40;;;;;;5081920;28;20204;-89
2023/10/05 07:57:35;;;;;;;6.57;3.08;;;13.30;96.00;;;;;;5082544;28;20216;-90
2023/10/05 08:00:04;;;;;;;6.78;3.67;;;13.50;95.40;;;;;;5081171;28;20193;-91
2023/10/05 08:02:31;;;;;;;8.40;3.42;;;13.70;95.60;;;;;;5090530;28;20296;-90
2023/10/05 08:04:58;;;;;;;8.23;3.47;;;13.90;95.10;;;;;;5079796;28;20204;-92
2023/10/05 08:07:24;;;;;;;5.57;3.22;;;14.20;94.30;;;;;;5081989;28;20283;-92
2023/10/05 08:09:55;;;;;;;9.55;3.65;;;14.50;93.70;;;;;;5085592;28;20868;-91
2023/10/05 08:15:05;;;;;;;7.28;3.55;;;15.20;91.50;;;;;;5079386;28;20209;-91
2023/10/05 08:17:34;;;;;;;4.53;3.15;;;15.30;91.50;;;;;;5082515;28;20673;-91
2023/10/05 08:20:01;;;;;;;5.30;3.42;;;15.60;91.60;;;;;;5080724;28;20215;-91
2023/10/05 08:22:28;;;;;;;7.07;4.60;;;15.90;90.00;;;;;;5076964;28;20193;-90
2023/10/05 08:24:56;;;;;;;5.43;3.75;;;16.10;87.10;;;;;;5083354;28;20308;-90
2023/10/05 08:27:26;;;;;;;5.35;3.25;;;16.30;84.30;;;;;;5074047;28;20204;-89
2023/10/05 08:29:52;;;;;;;5.75;3.50;;;16.30;83.40;;;;;;5082925;28;20269;-90
2023/10/05 08:32:24;;;;;;;6.60;3.60;;;16.40;83.40;;;;;;5074560;28;20316;-89
2023/10/05 08:34:51;;;;;;;7.68;3.67;;;16.40;85.40;;;;;;5070925;28;20192;-89
2023/10/05 08:37:22;;;;;;;9.25;3.47;;;16.50;84.30;;;;;;5067376;28;20230;-89
2023/10/05 08:39:51;;;;;;;7.30;3.70;;;16.60;83.90;;;;;;5075098;28;20205;-91
2023/10/05 08:42:18;;;;;;;4.47;3.17;;;16.90;83.30;;;;;;5074048;28;20748;-90
2023/10/05 08:44:48;;;;;;;5.15;3.13;;;16.90;80.40;;;;;;5081151;28;20201;-92
2023/10/05 08:47:16;;;;;;;7.38;3.85;;;16.70;81.80;;;;;;5076547;28;20208;-90
2023/10/05 08:49:44;;;;;;;5.15;3.03;;;16.80;82.00;;;;;;5077983;28;20193;-89
2023/10/05 08:52:19;;;;;;;5.63;3.00;;;16.80;81.50;;;;;;5078392;28;20958;-91
2023/10/05 08:54:46;;;;;;;6.32;3.40;;;16.90;81.60;;;;;;5073581;28;20326;-90
2023/10/05 08:57:13;;;;;;;4.47;3.17;;;17.10;81.30;;;;;;5070528;28;20216;-89
2023/10/05 08:59:45;;;;;;;9.57;3.35;;;17.10;78.80;;;;;;5079591;28;20197;-89
2023/10/05 09:02:18;;;;;;;8.50;3.42;;;17.00;78.80;;;;;;5073474;28;20209;-88
2023/10/05 09:04:51;;;;;;;5.05;3.47;;;16.80;79.80;;;;;;5078554;28;20197;-88
2023/10/05 09:07:29;;;;;;;5.47;3.13;;;16.80;82.40;;;;;;5073727;28;20204;-88
2023/10/05 09:09:57;;;;;;;4.70;3.13;;;17.10;80.70;;;;;;5079182;28;20192;-88
2023/10/05 09:12:34;;;;;;;5.93;2.95;;;17.50;79.00;;;;;;5082351;28;20208;-88
2023/10/05 09:15:08;;;;;;;7.40;4.00;;;17.70;77.80;;;;;;5070926;28;20253;-88
2023/10/05 09:17:36;;;;;;;5.50;3.65;;;18.80;58.50;;;;;;5072570;28;20225;-89
2023/10/05 09:20:23;;;;;;;4.70;3.08;;;20.00;43.10;;;;;;5082756;28;20288;-90
2023/10/05 09:22:50;;;;;;;5.00;3.17;;;19.80;41.80;;;;;;5083119;28;20602;-89
2023/10/05 09:25:26;;;;;;;7.75;3.47;;;19.70;44.50;;;;;;5081914;28;20250;-88
2023/10/05 09:27:53;;;;;;;6.10;3.70;;;19.40;46.50;;;;;;5080755;28;20200;-87
2023/10/05 09:30:21;;;;;;;7.38;3.35;;;20.40;42.40;;;;;;5084184;28;20213;-87
2023/10/05 09:33:06;;;;;;;7.15;3.60;;;21.70;33.50;;;;;;5088576;28;20215;-85
2023/10/05 09:35:33;;;;;;;5.82;3.72;;;22.20;30.20;;;;;;5082882;28;20196;-89
2023/10/05 09:38:00;;;;;;;6.97;3.78;;;23.20;24.30;;;;;;5084872;28;20226;-89
2023/10/05 09:52:23;;;;;;;5.43;3.95;;;24.00;19.00;;;;;;5014379;28;20284;-89
2023/10/05 09:54:51;;;;;;;5.25;4.10;;;24.80;17.50;;;;;;5042298;28;20194;-90
2023/10/05 09:57:20;;;;;;;4.55;3.95;;;24.20;18.00;;;;;;5058783;28;20235;-89
2023/10/05 09:59:57;;;;;;;5.80;4.57;;;23.90;19.30;;;;;;5081964;28;20196;-89
2023/10/05 10:02:45;;;;;;;5.40;3.65;;;23.40;19.30;;;;;;5076548;28;20200;-89
2023/10/05 10:07:59;;;;;;;7.13;3.80;;;22.80;20.40;;;;;;5075402;28;20678;-88
2023/10/05 10:10:29;;;;;;;5.43;3.95;;;22.50;22.20;;;;;;5080589;28;20505;-89
2023/10/05 10:12:57;;;;;;;10.88;4.00;;;22.00;22.40;;;;;;5087612;28;20572;-88
2023/10/05 10:15:28;;;;;;;4.95;3.90;;;22.10;22.70;;;;;;5078383;28;20204;-89
2023/10/05 10:18:13;;;;;;;6.93;4.13;;;22.00;20.30;;;;;;5063772;28;20583;-88
2023/10/05 10:20:47;;;;;;;4.72;3.75;;;21.70;22.30;;;;;;5083160;28;20709;-87
2023/10/05 10:23:19;;;;;;;6.05;3.90;;;21.70;23.80;;;;;;5070855;28;20184;-86
2023/10/05 10:25:49;;;;;;;7.38;3.47;;;21.80;21.90;;;;;;5083541;28;20192;-87
2023/10/05 10:28:20;;;;;;;9.18;4.05;;;21.80;21.60;;;;;;5080362;28;20219;-86
2023/10/05 10:31:16;;;;;;;7.32;3.72;;;21.90;22.60;;;;;;5084715;28;20208;-87
2023/10/05 10:33:43;;;;;;;8.65;4.07;;;21.60;20.40;;;;;;5073579;28;20272;-87
2023/10/05 10:36:18;;;;;;;4.88;3.10;;;21.10;22.90;;;;;;5083597;28;20202;-88
2023/10/05 10:38:47;;;;;;;6.22;3.30;;;21.10;21.80;;;;;;5081162;28;20257;-86
2023/10/05 10:41:15;;;;;;;4.93;3.00;;;21.20;20.30;;;;;;5087817;28;20200;-84
2023/10/05 10:43:48;;;;;;;8.10;3.38;;;20.70;20.90;;;;;;5081438;28;20246;-83
2023/10/05 10:46:20;;;;;;;6.47;3.45;;;20.30;23.80;;;;;;5080263;28;20188;-87
2023/10/05 10:48:53;;;;;;;4.80;3.17;;;20.20;23.70;;;;;;5083285;28;20681;-87
2023/10/05 10:51:22;;;;;;;7.93;3.80;;;20.70;24.10;;;;;;5082520;28;20248;-85
2023/10/05 10:53:56;;;;;;;5.30;3.05;;;21.50;20.50;;;;;;5083372;28;20220;-86
2023/10/05 10:56:27;;;;;;;6.63;4.28;;;21.50;21.20;;;;;;5084619;28;20645;-88
2023/10/05 10:59:08;;;;;;;6.55;3.40;;;21.20;21.30;;;;;;5087301;28;20223;-87
2023/10/05 11:01:42;;;;;;;7.50;3.40;;;21.10;21.10;;;;;;5083791;28;20216;-86
2023/10/05 11:04:24;;;;;;;6.53;3.33;;;20.90;24.10;;;;;;5082685;28;20573;-87
2023/10/05 11:06:56;;;;;;;5.22;3.13;;;20.90;22.30;;;;;;5085362;28;20208;-87
2023/10/05 11:09:30;;;;;;;5.35;3.42;;;20.90;20.40;;;;;;5083620;28;20317;-88
2023/10/05 11:12:08;;;;;;;5.20;3.42;;;21.30;19.70;;;;;;5084771;28;20216;-87
2023/10/05 11:14:37;;;;;;;5.43;3.45;;;21.30;20.10;;;;;;5076135;28;20195;-85
2023/10/05 11:17:11;;;;;;;6.82;2.92;;;21.00;20.50;;;;;;5082990;28;20255;-86
2023/10/05 11:19:39;;;;;;;4.18;2.97;;;20.60;22.60;;;;;;5081738;28;20223;-86
2023/10/05 11:22:12;;;;;;;6.60;3.10;;;20.40;23.70;;;;;;5086031;28;20683;-87
2023/10/05 11:25:07;;;;;;;6.88;3.60;;;20.40;23.80;;;;;;5079112;28;20657;-86
2023/10/05 11:27:36;;;;;;;6.20;3.80;;;20.60;22.50;;;;;;5085212;28;20204;-86
2023/10/05 11:30:05;;;;;;;7.70;3.03;;;20.70;23.40;;;;;;5076304;28;20288;-88
2023/10/05 11:32:32;;;;;;;6.25;3.80;;;20.50;24.00;;;;;;5081130;28;20236;-87
2023/10/05 11:35:05;;;;;;;5.38;3.47;;;20.40;24.00;;;;;;5078732;28;20205;-87
2023/10/05 11:37:33;;;;;;;7.88;3.60;;;20.10;23.50;;;;;;5071360;28;20953;-87
2023/10/05 11:40:01;;;;;;;7.35;3.40;;;20.10;23.40;;;;;;5081904;28;20224;-88
2023/10/05 11:42:41;;;;;;;5.55;3.58;;;20.10;23.80;;;;;;5079665;28;20197;-88
2023/10/05 11:45:16;;;;;;;6.28;3.28;;;20.00;23.70;;;;;;5074898;28;20654;-88
2023/10/05 11:47:51;;;;;;;5.35;3.65;;;20.00;24.80;;;;;;5081719;28;20205;-87
2023/10/05 11:50:25;;;;;;;4.65;2.92;;;20.10;21.90;;;;;;5078522;28;20283;-86
2023/10/05 11:52:53;;;;;;;9.63;3.90;;;20.00;23.80;;;;;;5075117;28;20228;-85
2023/10/05 11:55:20;;;;;;;7.82;3.80;;;19.90;24.30;;;;;;5078463;28;20205;-87
2023/10/05 11:57:48;;;;;;;8.98;3.30;;;19.90;25.00;;;;;;5077610;28;20232;-86
2023/10/05 12:00:16;;;;;;;5.38;3.75;;;19.90;25.30;;;;;;5087200;28;20250;-85
2023/10/05 12:02:44;;;;;;;6.53;3.33;;;19.80;22.20;;;;;;5077606;28;20582;-85
2023/10/05 12:05:11;;;;;;;5.97;3.42;;;19.70;23.50;;;;;;5077153;28;20201;-86
2023/10/05 12:07:41;;;;;;;6.18;3.30;;;19.90;23.40;;;;;;5077230;28;20732;-86
2023/10/05 12:10:10;;;;;;;4.45;3.22;;;19.80;24.60;;;;;;5083579;28;20197;-86
2023/10/05 12:12:41;;;;;;;4.20;2.80;;;19.80;24.40;;;;;;5076944;28;20711;-86
2023/10/05 12:15:14;;;;;;;5.25;3.20;;;19.80;24.40;;;;;;5076067;28;20276;-86
2023/10/05 12:17:41;;;;;;;7.45;3.50;;;20.10;23.50;;;;;;5073097;28;20327;-85
2023/10/05 12:20:12;;;;;;;4.55;3.40;;;20.00;22.90;;;;;;5086617;28;20254;-86
2023/10/05 12:22:40;;;;;;;5.50;3.00;;;20.20;23.20;;;;;;5083156;28;20197;-86
2023/10/05 12:25:08;;;;;;;7.15;3.40;;;20.10;24.20;;;;;;5082715;28;20212;-86
2023/10/05 12:27:37;;;;;;;4.85;3.38;;;20.00;24.10;;;;;;5081457;28;20193;-86
2023/10/05 12:30:11;;;;;;;5.45;3.53;;;20.10;23.80;;;;;;5075541;28;20591;-86
2023/10/05 12:32:39;;;;;;;7.18;3.80;;;20.20;23.80;;;;;;5076694;28;20193;-86
2023/10/05 12:35:13;;;;;;;5.07;3.60;;;20.10;24.30;;;;;;5066387;28;20287;-87
2023/10/05 12:37:41;;;;;;;6.38;3.50;;;20.10;23.60;;;;;;5077232;28;20210;-87
2023/10/05 12:40:17;;;;;;;6.18;3.40;;;20.10;24.00;;;;;;5083918;28;20243;-87
2023/10/05 12:42:51;;;;;;;9.32;3.50;;;19.90;26.00;;;;;;5074413;28;20364;-87
2023/10/05 12:45:22;;;;;;;8.80;3.67;;;20.00;25.40;;;;;;5068472;28;20200;-88
2023/10/05 12:47:52;;;;;;;4.90;3.70;;;20.10;24.10;;;;;;5063115;28;20670;-88
2023/10/05 12:50:20;;;;;;;5.97;3.50;;;20.00;24.20;;;;;;5065868;28;20258;-87
2023/10/05 12:52:50;;;;;;;5.95;3.70;;;19.70;25.10;;;;;;5068915;28;20201;-87
2023/10/05 12:55:18;;;;;;;7.03;3.75;;;19.70;25.10;;;;;;5079922;28;20200;-89
2023/10/05 12:57:50;;;;;;;4.93;3.63;;;19.70;24.90;;;;;;5077509;28;20274;-89
2023/10/05 13:00:21;;;;;;;6.43;4.03;;;19.80;26.40;;;;;;5072061;28;20286;-86
2023/10/05 13:02:51;;;;;;;4.72;3.42;;;19.90;24.60;;;;;;5077817;28;20989;-86
2023/10/05 13:05:20;;;;;;;5.90;3.45;;;20.00;22.80;;;;;;5075855;28;20208;-87
2023/10/05 13:07:48;;;;;;;6.13;4.00;;;19.90;23.90;;;;;;5074654;28;20250;-86
2023/10/05 13:10:21;;;;;;;7.75;3.70;;;19.90;24.10;;;;;;5075170;28;20198;-87
2023/10/05 13:12:50;;;;;;;6.93;3.30;;;20.00;24.70;;;;;;5073173;28;20225;-87
2023/10/05 13:15:19;;;;;;;8.80;3.65;;;19.90;23.70;;;;;;5070127;28;20196;-87
2023/10/05 13:17:47;;;;;;;7.78;3.65;;;19.80;23.60;;;;;;5073895;28;20194;-87
2023/10/05 13:20:23;;;;;;;5.88;3.78;;;19.70;25.50;;;;;;5079223;28;20952;-87
2023/10/05 13:22:53;;;;;;;8.85;3.88;;;19.80;25.40;;;;;;5074096;28;20835;-87
2023/10/05 13:25:22;;;;;;;5.32;3.60;;;19.70;27.20;;;;;;5058443;28;20219;-88
2023/10/05 13:27:52;;;;;;;6.22;3.67;;;19.70;24.70;;;;;;5076743;28;20224;-88
2023/10/05 13:30:31;;;;;;;4.75;3.38;;;19.80;24.90;;;;;;5082180;28;20295;-88
2023/10/05 13:33:07;;;;;;;8.68;4.25;;;19.50;27.00;;;;;;5082798;28;20192;-88